Time;durP1;ratioP1;P1;durP2;ratioP2;P2;SDS_P1;SDS_P2;PMS_P1;PMS_P2;Temp;Humidity;BMP_temperature;BMP_pressure;BME280_temperature;BME280_humidity;BME280_pressure;Samples;Min_cycle;Max_cycle;Signal;HPM_P1;HPM_P2
2021/07/14 09:57:15;;;;;;;;;4.33;4.33;;;;;21.02;59.48;101270.78;5065745;28;45621;-87
2021/07/14 09:59:55;;;;;;;;;5.00;4.33;;;;;21.17;58.30;101272.84;5039332;28;45325;-90
2021/07/14 10:02:56;;;;;;;;;4.67;4.00;;;;;21.24;57.87;101278.81;5033662;28;45500;-91
2021/07/14 10:05:28;;;;;;;;;5.67;4.67;;;;;21.28;58.23;101270.63;5027859;28;45958;-93
2021/07/14 10:08:21;;;;;;;;;3.33;3.33;;;;;21.30;58.14;101271.44;5038275;28;47020;-88
2021/07/14 10:10:50;;;;;;;;;5.00;5.00;;;;;21.29;57.69;101277.72;5035967;28;45577;-86
2021/07/14 10:13:26;;;;;;;;;6.33;5.00;;;;;21.23;57.67;101274.41;5036240;28;45211;-91
2021/07/14 10:16:20;;;;;;;;;4.00;4.00;;;;;21.12;57.47;101266.81;5045475;28;45355;-87
2021/07/14 10:19:11;;;;;;;;;5.00;5.00;;;;;21.04;58.28;101275.13;5025180;28;48040;-87
2021/07/14 10:22:13;;;;;;;;;6.33;5.33;;;;;20.99;58.37;101271.75;5029215;28;45592;-91
2021/07/14 10:24:38;;;;;;;;;6.33;6.00;;;;;21.03;58.44;101268.00;5037054;28;45379;-87
2021/07/14 10:27:09;;;;;;;;;4.67;3.67;;;;;21.12;58.55;101274.84;5024677;28;45427;-89
2021/07/14 10:29:34;;;;;;;;;7.33;6.00;;;;;21.23;57.83;101271.75;5023800;28;46776;-90
2021/07/14 10:32:00;;;;;;;;;6.00;6.00;;;;;21.29;58.06;101277.72;5019394;28;45657;-88
2021/07/14 10:34:26;;;;;;;;;4.00;3.00;;;;;21.34;57.66;101282.88;5036583;28;45423;-87
2021/07/14 10:36:54;;;;;;;;;5.00;3.67;;;;;21.31;58.14;101283.88;5039550;28;45643;-88
2021/07/14 10:39:21;;;;;;;;;7.00;6.00;;;;;21.30;58.25;101273.22;5018330;28;47108;-89
2021/07/14 10:41:46;;;;;;;;;7.00;7.00;;;;;21.34;57.73;101285.56;5015903;28;45520;-90
2021/07/14 10:44:19;;;;;;;;;4.00;4.00;;;;;21.30;57.50;101286.59;5033764;28;45470;-92
2021/07/14 10:46:45;;;;;;;;;9.67;7.33;;;;;21.32;58.23;101288.28;5035089;28;45883;-93
2021/07/14 10:49:13;;;;;;;;;6.00;4.67;;;;;21.35;58.02;101284.63;5029439;28;47160;-85
2021/07/14 10:51:41;;;;;;;;;6.00;6.00;;;;;21.45;58.21;101293.22;5042780;28;45488;-94
2021/07/14 10:54:09;;;;;;;;;7.33;7.00;;;;;21.49;57.92;101285.00;5045508;28;45294;-91
2021/07/14 10:56:54;;;;;;;;;4.67;4.67;;;;;21.55;57.95;101287.41;5037626;28;44851;-93
2021/07/14 10:59:21;;;;;;;;;6.00;6.00;;;;;21.62;57.56;101289.84;5045703;28;47682;-90
2021/07/14 11:01:50;;;;;;;;;7.00;7.00;;;;;21.70;57.34;101291.25;5022908;28;45653;-91
2021/07/14 11:04:27;;;;;;;;;7.00;6.33;;;;;21.86;57.51;101280.75;5042731;28;44823;-90
2021/07/14 11:06:54;;;;;;;;;6.00;5.33;;;;;22.08;56.22;101283.44;5058753;28;45374;-95
2021/07/14 11:09:46;;;;;;;;;6.00;5.67;;;;;22.33;56.40;101277.03;5052434;28;47270;-91
2021/07/14 11:12:38;;;;;;;;;7.33;5.67;;;;;22.72;55.79;101279.72;5024856;28;45256;-96
2021/07/14 11:15:06;;;;;;;;;8.00;6.33;;;;;22.97;55.41;101282.16;5056428;28;45421;-95
2021/07/14 11:17:38;;;;;;;;;7.67;5.67;;;;;23.20;54.51;101281.09;5023398;28;45543;-96
2021/07/14 11:20:13;;;;;;;;;5.00;4.33;;;;;23.35;53.91;101282.16;5043117;28;47202;-96
2021/07/14 11:22:45;;;;;;;;;5.67;5.67;;;;;23.45;54.08;101286.13;5041004;28;45394;-95
2021/07/14 11:25:22;;;;;;;;;8.00;8.00;;;;;23.68;53.23;101290.38;5039150;28;45472;-94
2021/07/14 11:27:55;;;;;;;;;9.33;7.67;;;;;24.02;52.45;101287.84;5050910;28;45437;-94
2021/07/14 11:30:26;;;;;;;;;4.67;4.67;;;;;24.38;52.95;101275.16;5052650;28;46930;-94
2021/07/14 11:33:02;;;;;;;;;5.67;5.67;;;;;24.84;52.08;101272.69;5022361;28;45226;-94
2021/07/14 11:35:35;;;;;;;;;9.33;9.33;;;;;25.08;49.85;101280.38;5043573;28;44677;-95
2021/07/14 11:38:15;;;;;;;;;8.00;6.67;;;;;24.90;49.78;101286.78;5047666;28;44798;-96
2021/07/14 11:40:42;;;;;;;;;9.00;9.00;;;;;24.72;48.97;101288.66;5048037;28;46834;-96
2021/07/14 11:43:18;;;;;;;;;7.67;6.00;;;;;24.47;49.93;101287.28;5027859;28;44985;-96
2021/07/14 11:45:50;;;;;;;;;7.00;7.00;;;;;24.11;49.41;101301.69;5031108;28;44853;-95
2021/07/14 11:48:24;;;;;;;;;6.67;6.33;;;;;23.73;49.77;101299.09;5044603;28;44912;-96
2021/07/14 11:51:03;;;;;;;;;8.67;8.67;;;;;23.44;50.69;101305.91;5043371;28;46809;-93
2021/07/14 11:53:36;;;;;;;;;8.00;7.67;;;;;23.21;50.84;101296.25;5033395;28;45451;-94
2021/07/14 11:56:11;;;;;;;;;7.33;7.33;;;;;23.00;51.31;101308.00;5035261;28;44801;-95
2021/07/14 11:58:45;;;;;;;;;10.67;9.67;;;;;22.98;51.74;101301.84;5032803;28;45609;-94
2021/07/14 12:01:20;;;;;;;;;8.00;8.00;;;;;23.07;52.08;101296.03;5052089;28;47020;-91
2021/07/14 12:04:01;;;;;;;;;10.00;9.00;;;;;23.21;51.97;101298.06;5047741;28;45216;-92
2021/07/14 12:06:49;;;;;;;;;8.00;8.00;;;;;23.24;51.48;101297.94;5047819;28;45605;-94
2021/07/14 12:09:17;;;;;;;;;9.33;9.33;;;;;23.17;51.63;101297.34;5048963;28;45385;-92
2021/07/14 12:11:43;;;;;;;;;8.67;8.00;;;;;23.24;51.41;101297.94;5046079;28;47052;-87
2021/07/14 12:14:20;;;;;;;;;7.67;7.67;;;;;23.30;51.13;101303.88;5046987;28;45787;-89
2021/07/14 12:17:32;;;;;;;;;8.00;8.00;;;;;23.33;50.61;101301.06;5050842;28;45525;-94
2021/07/14 12:19:59;;;;;;;;;7.67;7.00;;;;;23.59;50.81;101319.53;5046500;28;45343;-93
2021/07/14 12:22:31;;;;;;;;;6.33;6.33;;;;;23.88;49.19;101307.38;5037465;28;46982;-91
2021/07/14 12:25:46;;;;;;;;;;;;;;;;;;;;;
2021/07/14 12:28:45;;;;;;;;;;;;;;;;;;;;;
2021/07/14 12:31:55;;;;;;;;;10.00;10.00;;;;;23.97;49.52;101301.50;5022148;28;73373;-92
2021/07/14 12:34:38;;;;;;;;;7.00;6.00;;;;;23.77;49.71;101303.41;5031257;28;45569;-92
2021/07/14 12:37:39;;;;;;;;;;;;;;;;;;;;;
2021/07/14 12:40:06;;;;;;;;;11.33;11.00;;;;;23.50;50.61;101316.34;5057061;28;67725;-92
2021/07/14 12:42:42;;;;;;;;;11.00;10.67;;;;;23.41;50.85;101300.66;5040206;28;45747;-92
2021/07/14 12:45:08;;;;;;;;;8.33;7.33;;;;;23.38;50.90;101305.31;5027373;28;47834;-91
2021/07/14 12:47:41;;;;;;;;;10.33;10.00;;;;;23.65;51.22;101298.59;5040345;28;45918;-93
2021/07/14 12:50:26;;;;;;;;;;;;;;;;;;;;;
2021/07/14 13:00:27;;;;;;;;;7.00;6.00;;;;;24.71;49.15;101301.25;4931459;28;45549;-88
2021/07/14 13:03:09;;;;;;;;;;;;;;;;;;;;;
2021/07/14 13:06:35;;;;;;;;;9.67;8.33;;;;;24.56;47.71;101304.75;4875273;29;71889;-89
2021/07/14 13:09:01;;;;;;;;;9.33;8.33;;;;;24.42;47.82;101297.38;4930969;28;45544;-89
2021/07/14 13:11:29;;;;;;;;;12.00;10.67;;;;;24.50;48.43;101299.72;5023472;28;45585;-89
2021/07/14 13:13:54;;;;;;;;;7.67;7.67;;;;;24.59;47.38;101292.03;5007342;28;45463;-87
2021/07/14 13:16:24;;;;;;;;;7.67;7.67;;;;;24.77;47.59;101300.91;5021585;28;45294;-87
2021/07/14 13:19:00;;;;;;;;;8.00;7.00;;;;;25.04;46.78;101285.06;5020186;28;45559;-87
2021/07/14 13:21:34;;;;;;;;;9.67;9.67;;;;;25.39;46.68;101290.31;4996256;28;45504;-87
2021/07/14 13:24:03;;;;;;;;;7.33;7.00;;;;;25.62;46.05;101288.13;5006017;28;45369;-87
2021/07/14 13:26:29;;;;;;;;;7.00;7.00;;;;;25.64;45.31;101292.47;5038852;28;45395;-87
2021/07/14 13:28:57;;;;;;;;;8.00;7.00;;;;;25.56;46.00;101299.28;5035726;28;48054;-87
2021/07/14 13:31:24;;;;;;;;;8.33;8.00;;;;;25.74;46.06;101298.19;5019998;28;45399;-87
2021/07/14 13:33:58;;;;;;;;;8.67;8.67;;;;;25.83;45.25;101291.41;5033251;28;45395;-86
2021/07/14 13:36:26;;;;;;;;;9.00;9.00;;;;;25.63;45.90;101292.56;5006083;28;45319;-89
2021/07/14 13:39:16;;;;;;;;;10.67;9.67;;;;;25.43;45.97;101297.28;5005566;28;47931;-87
2021/07/14 13:42:13;;;;;;;;;7.33;7.33;;;;;25.22;45.97;101304.75;5025440;28;45784;-87
2021/07/14 13:45:10;;;;;;;;;;;;;;;;;;;;;
2021/07/14 13:48:05;;;;;;;;;5.00;5.00;;;;;24.87;46.71;101304.00;5031141;28;72944;-87
2021/07/14 13:50:36;;;;;;;;;6.67;6.67;;;;;24.84;46.42;101310.41;5038580;28;45463;-88
2021/07/14 13:53:15;;;;;;;;;;;;;;;;;;;;;
2021/07/14 13:56:24;;;;;;;;;;;;;;;;;;;;;
2021/07/14 14:02:26;;;;;;;;;11.33;11.33;;;;;25.05;45.65;101318.28;5037627;28;45310;-89
2021/07/14 14:05:07;;;;;;;;;10.00;10.00;;;;;24.71;46.80;101333.56;5002825;28;45256;-87
2021/07/14 14:07:41;;;;;;;;;11.00;10.00;;;;;24.32;47.67;101331.97;4997055;28;45509;-90
2021/07/14 14:10:19;;;;;;;;;15.67;14.00;;;;;24.01;48.60;101339.91;5014329;28;45417;-93
2021/07/14 14:13:09;;;;;;;;;13.67;12.67;;;;;23.89;48.60;101338.69;5024330;28;47101;-93
2021/07/14 14:15:35;;;;;;;;;8.67;8.67;;;;;24.04;49.17;101343.31;5007121;28;45214;-92
2021/07/14 14:18:04;;;;;;;;;12.00;12.00;;;;;24.29;48.04;101350.13;5009600;28;44860;-96
2021/07/14 14:20:36;;;;;;;;;9.33;9.33;;;;;24.53;48.69;101340.78;5013555;28;45338;-92
2021/07/14 14:23:06;;;;;;;;;14.00;13.00;;;;;24.76;46.20;101341.41;5021900;28;47253;-84
2021/07/14 14:25:40;;;;;;;;;13.00;13.00;;;;;24.34;46.50;101334.59;5022214;28;45485;-80
2021/07/14 14:28:15;;;;;;;;;11.67;11.33;;;;;24.02;47.88;101349.72;5021961;28;45349;-82
2021/07/14 14:30:41;;;;;;;;;15.00;14.00;;;;;23.87;47.45;101337.88;5023542;28;45812;-81
2021/07/14 14:33:07;;;;;;;;;7.00;6.67;;;;;23.90;47.70;101341.31;5000757;28;47314;-84
2021/07/14 14:35:36;;;;;;;;;10.33;10.33;;;;;24.15;48.07;101338.25;4999725;28;45825;-81
2021/07/14 14:38:08;;;;;;;;;13.00;11.00;;;;;24.19;46.87;101350.59;5021257;28;45493;-83
2021/07/14 14:40:33;;;;;;;;;14.00;13.00;;;;;24.18;47.51;101353.34;5020842;28;45375;-84
2021/07/14 14:42:59;;;;;;;;;9.00;9.00;;;;;24.16;46.97;101350.75;5003262;28;57760;-83
2021/07/14 14:45:24;;;;;;;;;13.00;12.00;;;;;24.03;47.27;101349.66;5004321;28;45252;-84
2021/07/14 14:47:50;;;;;;;;;14.00;10.00;;;;;23.89;47.28;101352.13;5025113;28;45488;-86
2021/07/14 14:50:16;;;;;;;;;10.00;9.67;;;;;23.90;47.35;101349.38;5040062;28;45544;-83
2021/07/14 14:52:41;;;;;;;;;17.33;14.00;;;;;24.27;47.31;101342.13;5024201;28;47389;-84
2021/07/14 14:55:07;;;;;;;;;12.67;12.67;;;;;24.64;46.73;101346.50;5043115;28;45459;-83
2021/07/14 14:57:33;;;;;;;;;12.33;11.33;;;;;24.74;46.02;101346.88;5008441;28;45490;-85
2021/07/14 14:59:58;;;;;;;;;13.67;12.67;;;;;24.87;46.18;101352.47;5025146;28;45538;-85
2021/07/14 15:02:25;;;;;;;;;12.00;11.33;;;;;25.03;44.81;101348.00;5014305;28;46162;-84
2021/07/14 15:04:50;;;;;;;;;19.33;19.00;;;;;25.06;45.13;101341.56;5039492;28;45209;-84
2021/07/14 15:07:18;;;;;;;;;14.33;14.33;;;;;24.87;44.52;101352.47;5035383;28;45244;-85
2021/07/14 15:09:43;;;;;;;;;11.67;11.33;;;;;24.75;45.82;101345.94;5024481;28;45459;-84
2021/07/14 15:12:09;;;;;;;;;11.00;10.00;;;;;24.69;45.86;101353.44;5024558;28;47485;-85
2021/07/14 15:14:35;;;;;;;;;9.67;7.67;;;;;24.66;46.04;101351.78;5023965;28;45572;-84
2021/07/14 15:17:01;;;;;;;;;11.33;11.33;;;;;24.67;45.44;101348.13;5024907;28;45412;-88
2021/07/14 15:19:27;;;;;;;;;12.67;12.67;;;;;24.68;46.53;101341.81;5024457;28;45581;-87
2021/07/14 15:22:03;;;;;;;;;11.67;10.33;;;;;24.64;46.31;101341.13;5040941;28;46398;-93
2021/07/14 15:24:29;;;;;;;;;10.67;10.67;;;;;24.64;46.46;101346.50;5027138;28;45431;-88
2021/07/14 15:29:38;;;;;;;;;13.67;13.00;;;;;24.55;44.91;101348.81;5028541;28;45319;-88
2021/07/14 15:32:04;;;;;;;;;10.33;10.00;;;;;24.49;44.97;101358.06;5042593;28;45942;-91
2021/07/14 15:34:30;;;;;;;;;12.67;12.00;;;;;24.40;45.83;101351.31;5006377;28;45391;-89
2021/07/14 15:36:55;;;;;;;;;10.00;10.00;;;;;24.41;46.26;101357.56;5018802;28;45458;-85
2021/07/14 15:39:21;;;;;;;;;11.00;10.00;;;;;24.42;45.75;101352.09;5022782;28;45607;-86
2021/07/14 15:41:46;;;;;;;;;10.33;10.33;;;;;24.41;45.82;101354.88;5019485;28;48370;-84
2021/07/14 15:44:13;;;;;;;;;9.67;9.33;;;;;24.34;46.11;101359.69;5028081;28;45324;-85
2021/07/14 15:46:38;;;;;;;;;14.00;12.00;;;;;24.31;46.97;101353.59;5027874;28;45211;-87
2021/07/14 15:49:04;;;;;;;;;15.67;14.33;;;;;24.35;46.90;101349.78;5026927;28;45245;-85
2021/07/14 15:51:30;;;;;;;;;14.00;12.33;;;;;24.44;47.34;101343.97;5042525;28;48053;-84
2021/07/14 15:53:56;;;;;;;;;13.33;13.33;;;;;24.58;47.11;101349.50;5003740;28;45411;-85
2021/07/14 15:56:21;;;;;;;;;7.67;7.00;;;;;24.73;46.08;101355.91;5019129;28;45451;-88
2021/07/14 15:59:24;;;;;;;;;12.00;11.00;;;;;24.78;45.88;101361.03;5023882;28;45442;-91
2021/07/14 16:02:10;;;;;;;;;15.00;13.67;;;;;24.81;46.21;101348.28;5037402;28;45453;-89
2021/07/14 16:04:38;;;;;;;;;15.67;13.33;;;;;24.83;45.67;101351.78;5023309;28;45490;-86
2021/07/14 16:07:04;;;;;;;;;15.33;14.00;;;;;24.71;45.47;101355.13;5021191;28;45330;-87
2021/07/14 16:09:29;;;;;;;;;14.67;14.00;;;;;24.59;45.17;101350.38;5012464;28;45509;-87
2021/07/14 16:11:54;;;;;;;;;11.00;11.00;;;;;24.45;45.37;101358.31;5005528;28;45562;-85
2021/07/14 16:14:20;;;;;;;;;13.67;12.00;;;;;24.31;45.67;101359.84;5006031;28;45624;-86
2021/07/14 16:16:45;;;;;;;;;12.33;10.67;;;;;24.15;45.75;101358.91;5019568;28;45509;-87
2021/07/14 16:19:13;;;;;;;;;14.33;12.00;;;;;24.03;46.19;101343.38;5026418;28;45313;-89
2021/07/14 16:21:41;;;;;;;;;13.33;12.67;;;;;23.96;46.17;101359.81;5046388;28;45353;-87
2021/07/14 16:24:07;;;;;;;;;11.67;11.33;;;;;23.89;46.25;101354.81;5024019;28;45868;-89
2021/07/14 16:26:34;;;;;;;;;12.00;12.00;;;;;23.84;46.80;101368.50;5041502;28;45571;-88
2021/07/14 16:29:02;;;;;;;;;15.33;14.33;;;;;23.71;46.97;101362.88;5008164;28;45584;-92
2021/07/14 16:31:33;;;;;;;;;14.33;13.33;;;;;23.54;47.29;101366.31;5038273;28;45731;-91
2021/07/14 16:34:00;;;;;;;;;12.67;12.67;;;;;23.42;47.70;101372.28;5019656;28;45489;-90
2021/07/14 16:36:33;;;;;;;;;12.00;11.67;;;;;23.31;48.42;101364.75;5023285;28;44726;-91
2021/07/14 16:38:59;;;;;;;;;15.00;14.00;;;;;23.23;48.89;101358.84;5024956;28;45497;-90
2021/07/14 16:41:26;;;;;;;;;12.33;12.33;;;;;23.24;48.77;101374.03;5038739;28;46939;-90
2021/07/14 16:43:52;;;;;;;;;12.00;11.33;;;;;23.18;49.06;101362.69;5036427;28;45965;-89
2021/07/14 16:46:17;;;;;;;;;18.25;16.50;;;;;23.09;49.14;101358.59;5024529;28;45379;-89
2021/07/14 16:48:43;;;;;;;;;15.67;13.33;;;;;23.01;49.42;101366.16;5009843;28;45346;-88
2021/07/14 16:51:08;;;;;;;;;17.33;15.33;;;;;22.92;49.39;101366.53;5047588;28;45857;-89
2021/07/14 16:53:34;;;;;;;;;18.00;18.00;;;;;22.83;49.54;101367.84;5035738;28;45786;-89
2021/07/14 16:56:01;;;;;;;;;14.67;13.67;;;;;22.73;49.83;101372.72;5035792;28;45347;-93
2021/07/14 16:58:27;;;;;;;;;18.75;17.50;;;;;22.66;49.87;101357.84;5016729;28;45562;-93
2021/07/14 17:00:56;;;;;;;;;14.67;13.67;;;;;22.81;50.13;101372.41;5002535;28;48014;-89
2021/07/14 17:03:22;;;;;;;;;16.33;13.00;;;;;23.00;49.80;101367.09;5006095;28;45475;-87
2021/07/14 17:05:49;;;;;;;;;14.00;14.00;;;;;23.05;49.33;101362.38;5021216;28;45490;-88
2021/07/14 17:08:15;;;;;;;;;11.67;11.33;;;;;23.08;49.56;101365.78;5009794;28;45706;-92
2021/07/14 17:10:41;;;;;;;;;14.67;14.67;;;;;23.05;49.36;101382.06;5009615;28;47091;-91
2021/07/14 17:13:06;;;;;;;;;12.67;12.67;;;;;22.92;49.11;101366.53;5010155;28;45675;-91
2021/07/14 17:15:32;;;;;;;;;10.00;9.00;;;;;22.81;49.46;101372.41;5010111;28;45412;-91
2021/07/14 17:17:57;;;;;;;;;14.33;13.00;;;;;22.66;49.95;101365.88;5007893;28;45738;-90
2021/07/14 17:20:26;;;;;;;;;13.67;13.33;;;;;22.51;50.31;101378.19;5008644;28;46998;-90
2021/07/14 17:22:51;;;;;;;;;13.00;13.00;;;;;22.35;51.12;101364.56;5008341;28;45751;-90
2021/07/14 17:25:21;;;;;;;;;14.00;13.33;;;;;22.24;51.27;101381.09;5024252;28;45542;-90
2021/07/14 17:27:48;;;;;;;;;13.67;12.00;;;;;22.18;50.95;101380.44;5028846;28;45675;-91
2021/07/14 17:30:17;;;;;;;;;10.67;10.00;;;;;22.06;51.49;101380.97;5021973;28;46667;-93
2021/07/14 17:32:42;;;;;;;;;10.67;10.00;;;;;21.95;52.19;101381.41;5012194;28;45742;-92
2021/07/14 17:35:13;;;;;;;;;14.00;14.00;;;;;21.87;52.64;101373.69;5011722;28;45488;-92
2021/07/14 17:37:39;;;;;;;;;23.25;20.50;;;;;21.84;52.31;101389.91;5019352;28;45777;-92
2021/07/14 17:40:20;;;;;;;;;18.67;18.67;;;;;21.83;52.25;101388.13;5007891;28;47620;-89
2021/07/14 17:42:49;;;;;;;;;17.33;14.33;;;;;21.81;52.34;101373.91;5025872;28;45871;-95
2021/07/14 17:45:14;;;;;;;;;18.33;18.33;;;;;21.77;53.00;101366.94;5026015;28;45391;-93
2021/07/14 17:47:41;;;;;;;;;13.33;13.00;;;;;21.74;53.20;101380.47;5010342;28;45694;-93
2021/07/14 17:50:07;;;;;;;;;16.50;16.00;;;;;21.71;53.47;101386.81;5008174;28;47280;-92
2021/07/14 17:52:50;;;;;;;;;19.00;17.00;;;;;21.67;53.74;101387.88;5010863;28;45347;-92
2021/07/14 17:55:16;;;;;;;;;18.00;18.00;;;;;21.63;54.21;101385.41;5011269;28;45488;-91
2021/07/14 17:57:45;;;;;;;;;17.33;16.33;;;;;21.59;54.45;101382.81;5006410;28;46246;-90
2021/07/14 18:00:11;;;;;;;;;14.67;14.00;;;;;21.58;54.53;101383.75;5004280;28;47556;-86
2021/07/14 18:02:37;;;;;;;;;15.00;14.67;;;;;21.59;54.29;101395.34;5017723;28;45770;-85
2021/07/14 18:05:06;;;;;;;;;11.67;11.67;;;;;21.58;54.17;101394.47;5007663;28;45284;-86
2021/07/14 18:07:32;;;;;;;;;11.33;11.33;;;;;21.55;54.23;101388.38;5039902;28;45554;-83
2021/07/14 18:09:58;;;;;;;;;14.33;12.67;;;;;21.55;54.70;101386.56;5018491;28;46573;-84
2021/07/14 18:12:25;;;;;;;;;15.50;15.25;;;;;21.57;54.24;101395.41;5017488;28;45514;-85
2021/07/14 18:14:51;;;;;;;;;16.33;15.67;;;;;21.59;54.51;101385.50;5022810;28;45502;-83
2021/07/14 18:17:16;;;;;;;;;12.00;10.00;;;;;21.57;54.58;101391.84;5042361;28;45510;-84
2021/07/14 18:19:42;;;;;;;;;14.67;12.67;;;;;21.54;54.41;101384.81;5012340;28;47044;-83
2021/07/14 18:22:08;;;;;;;;;13.33;12.00;;;;;21.56;54.90;101390.09;5044086;28;45327;-86
2021/07/14 18:24:33;;;;;;;;;16.33;13.67;;;;;21.53;54.76;101388.41;5013078;28;45458;-86
2021/07/14 18:26:59;;;;;;;;;16.00;14.33;;;;;21.51;55.17;101387.59;5047942;28;45383;-85
2021/07/14 18:29:26;;;;;;;;;14.00;11.67;;;;;21.53;54.69;101387.53;5026283;28;47497;-83
2021/07/14 18:31:52;;;;;;;;;12.33;12.33;;;;;21.52;55.05;101375.97;5037687;28;45285;-81
2021/07/14 18:34:17;;;;;;;;;11.67;11.67;;;;;21.55;55.02;101396.41;5025677;28;45406;-85
2021/07/14 18:36:45;;;;;;;;;15.00;13.33;;;;;21.51;55.07;101384.03;5023733;28;45381;-84
2021/07/14 18:39:11;;;;;;;;;10.00;8.00;;;;;21.52;55.11;101384.00;5025567;28;45659;-88
2021/07/14 18:41:36;;;;;;;;;19.33;17.67;;;;;21.56;55.08;101387.41;5029516;28;45471;-84
2021/07/14 18:44:08;;;;;;;;;15.33;15.33;;;;;21.57;55.10;101375.75;5011098;28;45574;-87
2021/07/14 18:46:38;;;;;;;;;18.33;17.00;;;;;21.58;55.14;101383.75;5038825;28;45615;-83
2021/07/14 18:49:11;;;;;;;;;19.33;18.00;;;;;21.65;55.47;101395.13;5039556;28;45489;-88
2021/07/14 18:51:40;;;;;;;;;17.00;15.00;;;;;21.64;55.12;101387.13;5028718;28;45327;-88
2021/07/14 18:54:06;;;;;;;;;16.67;16.00;;;;;21.65;55.81;101395.13;5032093;28;45507;-91
2021/07/14 18:56:31;;;;;;;;;15.33;14.00;;;;;21.62;55.49;101389.00;5030603;28;45223;-91
2021/07/14 18:58:59;;;;;;;;;18.00;14.67;;;;;21.61;55.44;101388.13;5031348;28;47116;-90
2021/07/14 19:01:25;;;;;;;;;15.67;15.33;;;;;21.61;55.88;101377.41;5046399;28;45529;-91
2021/07/14 19:03:50;;;;;;;;;19.33;17.33;;;;;21.62;55.40;101391.66;5020439;28;44836;-90
2021/07/14 19:06:17;;;;;;;;;15.00;15.00;;;;;21.57;55.77;101395.41;5030445;28;45451;-88
2021/07/14 19:08:43;;;;;;;;;16.00;14.00;;;;;21.58;56.12;101398.97;5029324;28;45413;-88
2021/07/14 19:11:08;;;;;;;;;18.67;16.00;;;;;21.57;55.69;101397.19;5043066;28;45762;-90
2021/07/14 19:13:34;;;;;;;;;15.00;15.00;;;;;21.54;56.33;101391.97;5046973;28;45492;-88
2021/07/14 19:16:00;;;;;;;;;16.33;16.33;;;;;21.56;56.19;101399.00;5044644;28;45314;-85
2021/07/14 19:18:26;;;;;;;;;13.00;11.25;;;;;21.52;56.17;101391.19;5005759;28;46305;-86
2021/07/14 19:20:51;;;;;;;;;17.33;15.67;;;;;21.51;56.45;101392.94;5039153;28;45429;-88
2021/07/14 19:23:17;;;;;;;;;18.00;18.00;;;;;21.50;56.64;101404.63;5011536;28;45533;-88
2021/07/14 19:25:45;;;;;;;;;17.33;16.33;;;;;21.45;56.92;101395.88;5021359;28;50651;-91
2021/07/14 19:28:10;;;;;;;;;19.67;18.33;;;;;21.40;57.03;101394.31;5026298;28;47232;-90
2021/07/14 19:30:40;;;;;;;;;20.67;18.67;;;;;21.38;57.11;101391.69;5033098;28;45578;-94
2021/07/14 19:33:05;;;;;;;;;22.25;20.25;;;;;21.33;57.52;101396.31;5023955;28;45372;-89
2021/07/14 19:35:31;;;;;;;;;17.00;16.00;;;;;21.28;57.52;101393.81;5018857;28;45301;-87
2021/07/14 19:37:56;;;;;;;;;21.75;21.75;;;;;21.29;57.55;101392.00;5010916;28;46226;-88
2021/07/14 19:40:22;;;;;;;;;20.75;18.00;;;;;21.30;57.65;101396.44;5032616;28;45897;-90
2021/07/14 19:42:53;;;;;;;;;17.25;15.00;;;;;21.29;57.96;101403.59;5007165;28;45499;-89
2021/07/14 19:45:23;;;;;;;;;15.67;15.67;;;;;21.31;57.73;101403.53;5008237;28;45479;-92
2021/07/14 19:47:49;;;;;;;;;19.50;18.25;;;;;21.26;57.71;101405.53;5046581;28;47180;-93
2021/07/14 19:50:14;;;;;;;;;19.25;17.00;;;;;21.26;57.86;101406.41;5029132;28;45466;-88
2021/07/14 19:52:40;;;;;;;;;22.00;20.25;;;;;21.27;58.04;101413.47;5055838;28;45831;-91
2021/07/14 19:55:09;;;;;;;;;19.25;16.75;;;;;21.28;58.00;101417.94;5014362;28;45859;-87
2021/07/14 19:57:34;;;;;;;;;20.00;19.00;;;;;21.24;57.82;101410.94;5035573;28;47776;-87
2021/07/14 20:00:06;;;;;;;;;19.33;18.00;;;;;21.25;57.94;101419.81;5016905;28;44871;-88
2021/07/14 20:02:31;;;;;;;;;17.00;17.00;;;;;21.24;58.47;101413.59;5012991;28;45443;-92
2021/07/14 20:04:59;;;;;;;;;16.33;16.33;;;;;21.24;58.20;101418.97;5010798;28;45510;-90
2021/07/14 20:07:24;;;;;;;;;18.75;17.50;;;;;21.22;58.57;101411.91;5022060;28;47545;-94
2021/07/14 20:09:50;;;;;;;;;20.50;17.50;;;;;21.21;58.18;101415.53;5031354;28;45027;-94
2021/07/14 20:12:15;;;;;;;;;17.75;14.75;;;;;21.22;58.52;101423.50;5027583;28;45861;-94
2021/07/14 20:14:41;;;;;;;;;16.33;15.67;;;;;21.20;58.80;101425.38;5037352;28;44916;-94
2021/07/14 20:17:06;;;;;;;;;15.67;14.67;;;;;21.20;58.65;101425.38;5010744;28;49240;-95
2021/07/14 20:22:16;;;;;;;;;16.33;16.00;;;;;21.18;58.84;101421.88;5043734;22;45302;-92
2021/07/14 20:24:41;;;;;;;;;14.00;14.00;;;;;21.20;58.94;101427.16;4972819;28;45572;-93
2021/07/14 20:27:07;;;;;;;;;17.33;16.00;;;;;21.18;58.83;101421.00;4979937;28;47434;-92
2021/07/14 20:29:33;;;;;;;;;15.33;15.33;;;;;21.15;58.90;101430.03;4992325;28;45330;-94
2021/07/14 20:32:02;;;;;;;;;18.00;17.33;;;;;21.15;58.82;101433.56;5025331;28;45282;-94
2021/07/14 20:34:28;;;;;;;;;18.33;17.00;;;;;21.12;59.37;101431.00;4962333;28;45296;-94
2021/07/14 20:36:55;;;;;;;;;19.75;19.50;;;;;21.12;58.90;101436.38;4989535;28;47267;-93
2021/07/14 20:39:41;;;;;;;;;;;;;;;;;;;;;
2021/07/14 20:42:07;;;;;;;;;16.00;15.00;;;;;21.14;59.23;101447.91;5003721;28;69931;-89
2021/07/14 20:44:32;;;;;;;;;18.00;16.67;;;;;21.12;59.43;101435.50;4977616;28;45589;-89
2021/07/14 20:46:58;;;;;;;;;15.67;15.33;;;;;21.12;59.21;101444.41;4989896;28;48817;-89
2021/07/14 20:49:27;;;;;;;;;16.00;15.00;;;;;21.11;59.24;101437.28;4988130;28;45541;-89
2021/07/14 20:51:53;;;;;;;;;12.67;11.33;;;;;21.10;59.07;101432.00;4979887;28;45442;-91
2021/07/14 20:54:19;;;;;;;;;13.67;13.67;;;;;21.09;59.30;101432.91;4976093;28;45421;-92
2021/07/14 20:56:45;;;;;;;;;14.00;13.33;;;;;21.08;59.28;101431.16;5001910;28;47437;-91
2021/07/14 20:59:11;;;;;;;;;12.33;12.33;;;;;21.07;59.38;101424.09;4987694;28;45403;-89
2021/07/14 21:01:37;;;;;;;;;17.67;17.33;;;;;21.06;59.34;101433.03;5002881;28;45426;-93
2021/07/14 21:04:02;;;;;;;;;15.33;13.00;;;;;21.05;59.51;101436.66;4988826;28;45653;-93
2021/07/14 21:06:30;;;;;;;;;13.33;12.33;;;;;21.04;59.56;101437.59;4972440;28;47099;-89
2021/07/14 21:08:55;;;;;;;;;14.67;13.67;;;;;21.01;59.93;101430.53;4979092;28;45388;-92
2021/07/14 21:11:21;;;;;;;;;12.25;12.00;;;;;21.02;59.38;101434.94;4988786;28;45578;-94
2021/07/14 21:13:46;;;;;;;;;14.33;11.33;;;;;21.01;59.71;101435.91;4975504;28;45531;-93
2021/07/14 21:16:17;;;;;;;;;12.00;12.00;;;;;20.96;59.60;101435.19;4976345;28;47557;-92
2021/07/14 21:18:43;;;;;;;;;13.67;11.67;;;;;20.95;59.75;101437.91;4972089;28;45459;-91
2021/07/14 21:21:10;;;;;;;;;12.00;11.00;;;;;20.97;59.68;101431.56;4978277;28;45714;-94
2021/07/14 21:23:36;;;;;;;;;12.67;12.67;;;;;20.95;59.83;101437.91;4999503;28;44933;-96
2021/07/14 21:26:02;;;;;;;;;13.67;13.67;;;;;20.98;59.96;101435.09;4995578;28;47037;-94
2021/07/14 21:28:36;;;;;;;;;12.33;12.00;;;;;20.98;59.82;101435.97;4994482;28;45431;-93
2021/07/14 21:31:06;;;;;;;;;17.00;14.67;;;;;20.95;59.64;101425.38;4988106;28;45004;-92
2021/07/14 21:33:31;;;;;;;;;13.67;13.33;;;;;20.95;59.88;101437.91;4993839;27;44863;-93
2021/07/14 21:35:59;;;;;;;;;16.00;13.00;;;;;20.94;59.90;101429.00;5000390;28;47087;-92
2021/07/14 21:38:25;;;;;;;;;11.67;11.00;;;;;20.92;59.88;101428.16;4978679;28;45432;-90
2021/07/14 21:40:50;;;;;;;;;12.33;12.33;;;;;20.90;60.01;101425.56;4991351;28;45459;-89
2021/07/14 21:43:16;;;;;;;;;12.00;12.00;;;;;20.92;60.16;101428.16;4996172;28;44835;-90
2021/07/14 21:45:42;;;;;;;;;11.33;11.00;;;;;20.90;60.36;101430.94;4987280;28;46995;-87
2021/07/14 21:48:08;;;;;;;;;10.67;10.00;;;;;20.88;59.97;101435.44;4991966;28;45509;-87
2021/07/14 21:50:33;;;;;;;;;15.00;13.33;;;;;20.88;60.22;101432.78;4973962;28;45604;-91
2021/07/14 21:52:59;;;;;;;;;13.67;12.67;;;;;20.88;60.30;101434.59;4972875;28;45576;-91
2021/07/14 21:55:25;;;;;;;;;14.67;14.33;;;;;20.86;60.23;101433.75;4975583;28;48548;-89